createdAt,value
2023-01-19T00:01:07.957Z,-128.00
2023-01-19T00:03:35.282Z,-128.00
2023-01-19T00:06:05.848Z,-128.00
2023-01-19T00:08:32.681Z,-128.00
2023-01-19T00:10:59.410Z,-128.00
2023-01-19T00:13:26.163Z,-128.00
2023-01-19T00:15:52.873Z,-128.00
2023-01-19T00:18:20.573Z,-128.00
2023-01-19T00:20:47.487Z,-128.00
2023-01-19T00:23:14.680Z,-128.00
2023-01-19T00:25:44.325Z,-128.00
2023-01-19T00:28:11.822Z,-128.00
2023-01-19T00:30:39.090Z,-128.00
2023-01-19T00:34:37.136Z,-101.09
2023-01-19T00:37:04.364Z,-128.00
2023-01-19T00:39:31.125Z,-128.00
2023-01-19T00:42:16.700Z,-128.00
2023-01-19T00:44:43.563Z,-128.00
2023-01-19T00:47:10.281Z,-128.00
2023-01-19T00:49:36.966Z,-128.00
2023-01-19T00:52:03.747Z,-128.00
2023-01-19T00:54:30.437Z,-128.00
2023-01-19T00:56:57.133Z,-128.00
2023-01-19T00:59:25.773Z,-128.00
2023-01-19T01:01:52.647Z,-128.00
2023-01-19T01:04:19.541Z,-128.00
2023-01-19T01:06:46.253Z,-128.00
2023-01-19T01:09:13.083Z,-128.00
2023-01-19T01:11:43.559Z,-128.00
2023-01-19T01:14:11.656Z,-128.00
2023-01-19T01:16:38.560Z,-128.00
2023-01-19T01:19:05.298Z,-128.00
2023-01-19T01:21:34.514Z,-128.00
2023-01-19T01:24:01.752Z,-128.00
2023-01-19T01:26:28.452Z,-128.00
2023-01-19T01:28:55.137Z,-128.00
2023-01-19T01:31:21.814Z,-128.00
2023-01-19T01:33:48.509Z,-128.00
2023-01-19T01:36:15.270Z,-128.00
2023-01-19T01:38:42.141Z,-128.00
2023-01-19T01:41:09.195Z,-128.00
2023-01-19T01:43:54.903Z,-128.00
2023-01-19T01:46:21.554Z,-128.00
2023-01-19T01:48:53.023Z,-128.00
2023-01-19T01:51:25.228Z,-128.00
2023-01-19T01:54:14.763Z,-128.00
2023-01-19T01:56:44.373Z,-128.00
2023-01-19T01:59:18.073Z,-128.00
2023-01-19T02:02:03.708Z,-128.00
2023-01-19T02:04:30.694Z,-128.00
2023-01-19T02:07:16.204Z,-128.00
2023-01-19T02:10:01.849Z,-128.00
2023-01-19T02:12:47.241Z,-128.00
2023-01-19T02:15:18.267Z,-128.00
2023-01-19T02:17:45.086Z,-128.00
2023-01-19T02:20:12.203Z,-128.00
2023-01-19T02:22:49.406Z,-128.00
2023-01-19T02:25:16.661Z,-128.00
2023-01-19T02:27:43.353Z,-128.00
2023-01-19T02:30:10.896Z,-128.00
2023-01-19T02:32:37.550Z,-128.00
2023-01-19T02:35:04.553Z,-128.00
2023-01-19T02:37:31.388Z,-128.00
2023-01-19T02:39:59.236Z,-128.00
2023-01-19T02:42:37.347Z,-128.00
2023-01-19T02:45:09.434Z,-128.00
2023-01-19T02:47:46.745Z,-128.00
2023-01-19T02:50:41.865Z,-128.00
2023-01-19T02:53:18.751Z,-128.00
2023-01-19T02:55:48.689Z,-128.00
2023-01-19T02:58:16.789Z,-128.00
2023-01-19T03:01:19.700Z,-128.00
2023-01-19T03:04:12.057Z,-128.00
2023-01-19T03:06:48.233Z,-128.00
2023-01-19T03:09:24.722Z,-128.00
2023-01-19T03:11:55.831Z,-128.00
2023-01-19T03:14:23.764Z,-128.00
2023-01-19T03:16:58.296Z,-128.00
2023-01-19T03:19:27.314Z,-128.00
2023-01-19T03:22:15.457Z,-128.00
2023-01-19T03:24:43.469Z,-128.00
2023-01-19T03:27:34.240Z,-128.00
2023-01-19T03:30:05.473Z,-128.00
2023-01-19T03:32:35.583Z,-128.00
2023-01-19T03:35:03.826Z,-128.00
2023-01-19T03:37:30.505Z,-128.00
2023-01-19T03:39:57.386Z,-128.00
2023-01-19T03:42:24.055Z,-128.00
2023-01-19T03:44:51.400Z,-128.00
2023-01-19T03:47:18.132Z,-128.00
2023-01-19T03:49:45.310Z,-128.00
2023-01-19T03:52:12.985Z,-128.00
2023-01-19T03:54:41.073Z,-128.00
2023-01-19T03:57:08.323Z,-128.00
2023-01-19T13:28:45.221Z,7.76
2023-01-19T13:31:12.726Z,7.91
2023-01-19T13:33:45.137Z,7.96
2023-01-19T13:36:26.445Z,8.01
2023-01-19T13:38:53.627Z,8.04
2023-01-19T13:41:23.573Z,8.07
2023-01-19T13:43:55.201Z,8.10
2023-01-19T13:46:21.951Z,8.12
2023-01-19T13:49:00.375Z,8.14
2023-01-19T13:51:27.599Z,8.16
2023-01-19T13:53:59.329Z,8.18
2023-01-19T13:56:30.687Z,8.19
2023-01-19T13:59:10.162Z,8.22
2023-01-19T14:01:44.484Z,8.23
2023-01-19T14:04:31.304Z,8.26
2023-01-19T14:07:02.912Z,8.28
2023-01-19T14:09:30.169Z,8.28
2023-01-19T14:12:16.021Z,8.28
2023-01-19T14:14:43.985Z,8.29
2023-01-19T14:17:23.251Z,8.29
2023-01-19T14:19:51.180Z,8.30
2023-01-19T14:22:18.147Z,8.32
2023-01-19T14:24:44.951Z,8.32
2023-01-19T14:27:24.334Z,8.34
2023-01-19T14:29:54.029Z,8.35
2023-01-19T14:32:23.092Z,8.36
2023-01-19T14:35:10.651Z,8.37
2023-01-19T14:37:37.758Z,8.38
2023-01-19T14:40:16.082Z,8.38
2023-01-19T14:42:45.877Z,8.38
2023-01-19T14:45:22.585Z,8.38
2023-01-19T14:47:58.092Z,8.41
2023-01-19T14:50:27.638Z,8.44
2023-01-19T14:53:04.715Z,8.45
2023-01-19T14:55:38.603Z,8.48
2023-01-19T14:58:10.723Z,8.51
2023-01-19T15:00:37.494Z,8.52
2023-01-19T15:03:06.213Z,8.54
2023-01-19T15:05:33.593Z,8.55
2023-01-19T15:08:01.573Z,8.57
2023-01-19T15:10:28.518Z,8.60
2023-01-19T15:12:55.554Z,8.63
2023-01-19T15:15:32.616Z,8.67
2023-01-19T15:18:00.633Z,8.69
2023-01-19T15:20:27.498Z,8.71
2023-01-19T15:22:54.426Z,8.74
2023-01-19T15:25:26.035Z,8.76
2023-01-19T15:27:52.894Z,8.79
2023-01-19T15:30:21.057Z,8.82
2023-01-19T15:32:47.820Z,8.84
2023-01-19T15:35:16.036Z,8.88
2023-01-19T15:37:42.783Z,8.90
2023-01-19T15:40:10.458Z,8.91
2023-01-19T15:42:37.120Z,8.92
2023-01-19T15:45:11.815Z,8.92
2023-01-19T15:47:38.625Z,8.93
2023-01-19T15:50:06.032Z,8.95
2023-01-19T15:52:32.721Z,8.97
2023-01-19T15:54:59.362Z,8.99
2023-01-19T15:57:26.041Z,9.02
2023-01-19T15:59:53.503Z,9.03
2023-01-19T16:02:20.417Z,9.04
2023-01-19T16:04:50.200Z,9.06
2023-01-19T16:07:16.986Z,9.09
2023-01-19T16:09:43.846Z,9.11
2023-01-19T16:12:10.512Z,9.14
2023-01-19T16:14:37.205Z,9.15
2023-01-19T16:17:05.232Z,9.17
2023-01-19T16:19:31.985Z,9.17
2023-01-19T16:21:58.699Z,9.19
2023-01-19T16:24:25.570Z,9.20
2023-01-19T16:26:53.001Z,9.21
2023-01-19T16:29:19.883Z,9.23
2023-01-19T16:31:46.978Z,9.24
2023-01-19T16:34:13.884Z,9.24
2023-01-19T16:36:41.242Z,9.25
2023-01-19T16:39:13.220Z,9.26
2023-01-19T16:41:40.373Z,9.28
2023-01-19T16:44:14.238Z,9.29
2023-01-19T16:47:28.400Z,9.32
2023-01-19T16:49:55.251Z,9.33
2023-01-19T16:52:22.312Z,9.34
2023-01-19T16:54:49.185Z,9.36
2023-01-19T16:57:15.838Z,9.39
2023-01-19T16:59:44.191Z,9.41
2023-01-19T17:02:11.522Z,9.42
2023-01-19T17:04:38.386Z,9.41
2023-01-19T17:07:05.045Z,9.40
2023-01-19T17:09:31.689Z,9.37
2023-01-19T17:11:58.514Z,9.34
2023-01-19T17:14:25.271Z,9.31
2023-01-19T17:16:52.127Z,9.27
2023-01-19T17:19:19.706Z,9.24
2023-01-19T17:21:46.824Z,9.23
2023-01-19T17:24:13.545Z,-45.67
2023-01-19T17:26:40.732Z,-128.00
2023-01-19T17:29:08.997Z,-128.00
2023-01-19T17:31:36.216Z,-128.00
2023-01-19T17:34:02.961Z,-128.00
2023-01-19T17:36:30.516Z,-128.00
2023-01-19T17:38:58.454Z,-128.00
2023-01-19T17:41:27.555Z,-128.00
2023-01-19T17:43:54.323Z,-128.00
2023-01-19T17:46:22.526Z,-128.00
2023-01-19T17:48:56.935Z,-128.00
2023-01-19T17:51:23.972Z,-128.00
2023-01-19T17:53:51.194Z,-128.00
2023-01-19T17:56:21.570Z,-128.00
2023-01-19T17:58:48.796Z,-128.00
2023-01-19T18:01:19.693Z,-128.00
2023-01-19T18:03:46.689Z,-128.00
2023-01-19T18:06:14.024Z,-128.00
2023-01-19T18:08:46.256Z,-128.00
2023-01-19T18:11:13.406Z,-128.00
2023-01-19T18:13:41.655Z,-128.00
2023-01-19T18:16:10.173Z,-128.00
2023-01-19T18:18:37.051Z,-128.00
2023-01-19T18:21:06.075Z,-128.00
2023-01-19T18:23:32.935Z,-128.00
2023-01-19T18:26:00.590Z,-128.00
2023-01-19T18:28:27.658Z,-128.00
2023-01-19T18:30:54.567Z,-128.00
2023-01-19T18:33:21.463Z,-128.00
2023-01-19T18:35:48.203Z,-128.00
2023-01-19T18:38:14.985Z,-128.00
2023-01-19T18:40:41.746Z,-128.00
2023-01-19T18:43:09.130Z,-128.00
2023-01-19T18:45:37.231Z,-128.00
2023-01-19T18:48:04.396Z,-128.00
2023-01-19T18:50:31.195Z,-128.00
2023-01-19T18:52:58.086Z,-128.00
2023-01-19T18:55:24.768Z,-128.00
2023-01-19T18:57:51.578Z,-128.00
2023-01-19T19:00:18.795Z,-128.00
2023-01-19T19:02:45.448Z,-128.00
2023-01-19T19:05:12.118Z,-128.00
2023-01-19T19:07:38.965Z,-128.00
2023-01-19T19:10:06.326Z,-128.00
2023-01-19T19:12:33.157Z,-128.00
2023-01-19T19:14:59.929Z,-128.00
2023-01-19T19:17:26.673Z,-128.00
2023-01-19T19:19:53.519Z,-128.00
2023-01-19T19:22:20.277Z,-128.00
2023-01-19T19:24:47.013Z,-128.00
2023-01-19T19:27:13.982Z,-128.00
2023-01-19T19:29:41.353Z,-128.00
2023-01-19T19:32:08.098Z,-128.00
2023-01-19T19:34:34.912Z,-128.00
2023-01-19T19:37:02.770Z,-128.00
2023-01-19T19:39:29.533Z,-128.00
2023-01-19T19:41:56.310Z,-128.00
2023-01-19T19:44:23.231Z,-128.00
2023-01-19T19:46:50.036Z,-128.00
2023-01-19T19:49:21.525Z,-128.00
2023-01-19T19:51:48.796Z,-128.00
2023-01-19T19:57:05.385Z,-46.03
2023-01-19T19:59:32.111Z,-128.00
2023-01-19T20:01:58.787Z,-128.00
2023-01-19T20:04:25.510Z,-128.00
2023-01-19T20:06:52.417Z,-128.00
2023-01-19T20:09:19.237Z,-128.00
2023-01-19T20:11:46.909Z,-128.00
2023-01-19T20:14:14.276Z,-128.00
2023-01-19T20:16:41.000Z,-128.00
2023-01-19T20:19:07.845Z,-128.00
2023-01-19T20:21:38.973Z,-128.00
2023-01-19T20:24:08.146Z,-128.00
2023-01-19T20:26:36.188Z,-128.00
2023-01-19T20:29:06.235Z,-128.00
2023-01-19T20:31:34.826Z,-128.00
2023-01-19T20:34:06.908Z,-128.00
2023-01-19T20:36:33.636Z,-128.00
2023-01-19T20:39:00.516Z,-128.00
2023-01-19T20:41:27.300Z,-128.00
2023-01-19T20:43:53.998Z,-128.00
2023-01-19T20:46:20.737Z,-128.00
2023-01-19T20:48:52.901Z,-128.00
2023-01-19T20:51:20.368Z,-128.00
2023-01-19T20:53:47.503Z,-128.00
2023-01-19T20:56:14.804Z,-128.00
2023-01-19T20:58:41.787Z,-128.00
2023-01-19T21:01:16.957Z,-128.00
2023-01-19T21:03:43.849Z,-128.00
2023-01-19T21:06:10.588Z,-128.00
2023-01-19T21:08:37.279Z,-128.00
2023-01-19T21:11:04.517Z,-128.00
2023-01-19T21:13:31.779Z,-128.00
2023-01-19T21:15:59.204Z,-128.00
2023-01-19T21:18:27.929Z,-128.00
2023-01-19T21:20:55.461Z,-128.00
2023-01-19T21:23:22.240Z,-128.00
2023-01-19T21:25:53.070Z,-128.00
2023-01-19T21:28:19.890Z,-128.00
2023-01-19T21:30:46.739Z,-128.00
2023-01-19T21:33:13.756Z,-128.00
2023-01-19T21:35:40.452Z,-128.00
2023-01-19T21:38:07.244Z,-128.00
2023-01-19T21:40:34.234Z,-128.00
2023-01-19T21:43:00.921Z,-128.00
2023-01-19T21:45:27.607Z,-128.00
2023-01-19T21:47:54.282Z,-128.00
2023-01-19T21:50:20.943Z,-128.00
2023-01-19T21:52:47.605Z,-128.00
2023-01-19T21:55:14.693Z,-128.00
2023-01-19T21:57:41.707Z,-128.00
2023-01-19T22:00:10.273Z,-128.00
2023-01-19T22:02:39.116Z,-128.00
2023-01-19T22:05:06.607Z,-128.00
2023-01-19T22:07:33.306Z,-128.00
2023-01-19T22:10:00.060Z,-128.00
2023-01-19T22:12:26.764Z,-128.00
2023-01-19T22:14:53.452Z,-128.00
2023-01-19T22:17:20.263Z,-128.00
2023-01-19T22:19:48.198Z,-128.00
2023-01-19T22:22:15.145Z,-128.00
2023-01-19T22:24:46.596Z,-128.00
2023-01-19T22:27:13.459Z,-128.00
2023-01-19T22:29:40.141Z,-128.00
